createdAt,value
2022-12-11T00:00:24.327Z,15.90
2022-12-11T00:03:12.773Z,14.77
2022-12-11T00:05:58.676Z,15.40
2022-12-11T00:08:43.887Z,16.10
2022-12-11T00:11:27.036Z,15.63
2022-12-11T00:14:10.288Z,15.20
2022-12-11T00:16:53.552Z,15.73
2022-12-11T00:19:37.130Z,17.13
2022-12-11T00:22:20.241Z,16.43
2022-12-11T00:25:05.233Z,17.17
2022-12-11T00:27:48.540Z,16.80
2022-12-11T00:30:31.696Z,16.70
2022-12-11T00:33:16.432Z,17.57
2022-12-11T00:35:59.467Z,17.27
2022-12-11T00:38:43.942Z,17.83
2022-12-11T00:41:28.412Z,17.37
2022-12-11T00:44:11.561Z,14.33
2022-12-11T00:46:54.715Z,15.90
2022-12-11T00:49:37.825Z,17.07
2022-12-11T00:52:21.156Z,18.43
2022-12-11T00:55:04.551Z,19.63
2022-12-11T00:57:49.615Z,18.07
2022-12-11T01:00:32.752Z,18.13
2022-12-11T01:03:19.539Z,18.30
2022-12-11T01:06:02.873Z,19.30
2022-12-11T01:08:47.425Z,21.27
2022-12-11T01:11:29.638Z,22.00
2022-12-11T01:14:14.576Z,21.63
2022-12-11T01:16:58.072Z,20.87
2022-12-11T01:19:41.244Z,21.10
2022-12-11T01:22:24.371Z,18.77
2022-12-11T01:25:09.795Z,19.27
2022-12-11T01:27:55.835Z,18.73
2022-12-11T01:30:42.935Z,18.23
2022-12-11T01:33:26.218Z,18.60
2022-12-11T01:36:11.112Z,18.93
2022-12-11T01:38:54.609Z,18.77
2022-12-11T01:41:37.918Z,19.47
2022-12-11T01:44:54.262Z,18.13
2022-12-11T01:47:39.191Z,18.33
2022-12-11T01:50:22.582Z,17.53
2022-12-11T01:53:08.495Z,20.23
2022-12-11T01:55:52.872Z,18.80
2022-12-11T01:58:41.834Z,20.33
2022-12-11T02:01:33.962Z,19.77
2022-12-11T02:04:19.998Z,20.30
2022-12-11T02:07:03.781Z,19.90
2022-12-11T02:09:49.364Z,19.87
2022-12-11T02:12:40.255Z,19.60
2022-12-11T02:15:32.654Z,18.93
2022-12-11T02:18:21.523Z,19.93
2022-12-11T02:21:11.445Z,18.10
2022-12-11T02:24:20.073Z,18.00
2022-12-11T02:27:21.032Z,17.20
2022-12-11T02:30:08.249Z,14.67
2022-12-11T02:32:56.297Z,14.27
2022-12-11T02:35:43.153Z,15.67
2022-12-11T02:38:31.578Z,14.37
2022-12-11T02:41:15.014Z,14.17
2022-12-11T02:43:59.741Z,9.30
2022-12-11T02:46:45.666Z,9.00
2022-12-11T02:49:30.274Z,9.93
2022-12-11T02:52:15.916Z,8.60
2022-12-11T02:55:01.880Z,8.70
2022-12-11T02:57:48.932Z,9.43
2022-12-11T03:00:33.387Z,7.60
2022-12-11T03:03:17.858Z,7.77
2022-12-11T03:06:01.668Z,7.87
2022-12-11T03:08:44.720Z,8.80
2022-12-11T03:11:28.175Z,7.57
2022-12-11T03:14:11.484Z,7.90
2022-12-11T03:17:01.329Z,8.50
2022-12-11T03:19:55.210Z,8.07
2022-12-11T03:22:43.241Z,7.57
2022-12-11T03:25:34.532Z,8.37
2022-12-11T03:28:21.089Z,6.73
2022-12-11T03:31:09.258Z,6.67
2022-12-11T03:33:56.024Z,7.10
2022-12-11T03:36:42.168Z,6.40
2022-12-11T03:39:32.170Z,7.50
2022-12-11T03:42:17.792Z,7.90
2022-12-11T03:45:03.693Z,8.37
2022-12-11T03:47:49.653Z,7.33
2022-12-11T03:50:36.678Z,6.67
2022-12-11T03:53:22.258Z,6.07
2022-12-11T03:56:08.055Z,6.07
2022-12-11T03:58:51.340Z,5.90
2022-12-11T04:01:34.503Z,6.63
2022-12-11T04:04:18.200Z,5.13
2022-12-11T04:07:01.433Z,5.77
2022-12-11T04:09:46.023Z,6.50
2022-12-11T04:12:29.206Z,6.67
2022-12-11T04:15:12.791Z,6.07
2022-12-11T04:18:13.812Z,7.70
2022-12-11T04:21:15.041Z,6.50
2022-12-11T04:24:16.370Z,7.10
2022-12-11T04:27:01.102Z,7.20
2022-12-11T04:29:44.313Z,5.70
2022-12-11T04:32:28.053Z,5.97
2022-12-11T04:35:12.940Z,6.70
2022-12-11T04:37:56.220Z,5.80
2022-12-11T04:40:39.569Z,6.30
2022-12-11T04:43:24.599Z,5.67
2022-12-11T04:46:11.322Z,5.47
2022-12-11T04:48:57.575Z,6.53
2022-12-11T04:51:41.068Z,5.40
2022-12-11T04:54:24.164Z,6.27
2022-12-11T04:57:07.741Z,6.33
2022-12-11T04:59:52.775Z,5.20
2022-12-11T05:02:37.631Z,6.40
2022-12-11T05:05:22.273Z,7.17
2022-12-11T05:08:05.888Z,5.60
2022-12-11T05:10:57.617Z,6.70
2022-12-11T05:13:41.626Z,5.90
2022-12-11T05:16:29.163Z,5.60
2022-12-11T05:19:12.476Z,6.80
2022-12-11T05:21:57.181Z,5.90
2022-12-11T05:24:40.506Z,6.00
2022-12-11T05:27:24.115Z,5.93
2022-12-11T05:30:10.273Z,6.70
2022-12-11T05:32:55.129Z,6.23
2022-12-11T05:35:38.349Z,6.47
2022-12-11T05:38:22.047Z,5.93
2022-12-11T05:41:08.129Z,6.20
2022-12-11T05:43:51.547Z,6.60
2022-12-11T05:46:35.848Z,6.20
2022-12-11T05:49:22.629Z,6.00
2022-12-11T05:52:09.191Z,5.93
2022-12-11T05:54:52.596Z,6.07
2022-12-11T05:57:35.832Z,6.10
2022-12-11T06:00:19.007Z,6.57
2022-12-11T06:03:02.213Z,6.47
2022-12-11T06:05:46.837Z,6.40
2022-12-11T06:08:30.187Z,5.30
2022-12-11T06:11:18.379Z,7.27
2022-12-11T06:14:05.567Z,6.43
2022-12-11T06:16:48.721Z,5.80
2022-12-11T06:19:36.578Z,6.50
2022-12-11T06:22:21.963Z,6.20
2022-12-11T06:25:06.014Z,6.40
2022-12-11T06:27:49.493Z,6.60
2022-12-11T06:30:38.925Z,6.00
2022-12-11T06:33:22.712Z,5.43
2022-12-11T06:36:07.472Z,6.40
2022-12-11T06:38:52.609Z,6.17
2022-12-11T06:41:35.992Z,5.97
2022-12-11T06:44:19.116Z,6.03
2022-12-11T06:47:02.626Z,6.63
2022-12-11T06:49:45.957Z,6.10
2022-12-11T06:52:29.492Z,5.97
2022-12-11T06:55:14.213Z,6.40
2022-12-11T06:57:58.721Z,5.20
2022-12-11T07:00:43.239Z,5.43
2022-12-11T07:03:26.380Z,6.60
2022-12-11T07:06:09.702Z,6.00
2022-12-11T07:08:53.157Z,5.67
2022-12-11T07:11:37.705Z,6.30
2022-12-11T07:14:21.002Z,5.73
2022-12-11T07:17:04.151Z,6.57
2022-12-11T07:19:47.578Z,5.00
2022-12-11T07:22:30.978Z,6.27
2022-12-11T07:25:14.597Z,5.50
2022-12-11T07:48:01.868Z,6.30
2022-12-11T07:50:45.171Z,6.90
2022-12-11T07:53:28.462Z,6.43
2022-12-11T07:56:11.738Z,7.80
2022-12-11T07:58:56.809Z,5.97
2022-12-11T08:01:42.277Z,9.30
2022-12-11T08:04:25.549Z,5.87
2022-12-11T08:07:08.831Z,5.37
2022-12-11T08:09:51.995Z,4.87
2022-12-11T08:12:35.197Z,7.40
2022-12-11T08:15:19.898Z,6.33
2022-12-11T08:18:04.129Z,5.10
2022-12-11T08:20:47.197Z,6.23
2022-12-11T08:23:30.324Z,6.37
2022-12-11T08:26:16.124Z,5.57
2022-12-11T08:28:59.980Z,5.77
2022-12-11T08:31:47.384Z,6.73
2022-12-11T08:34:30.590Z,5.60
2022-12-11T08:37:13.812Z,5.77
2022-12-11T08:39:57.117Z,6.00
2022-12-11T08:42:41.631Z,5.07
2022-12-11T08:45:24.734Z,6.03
2022-12-11T08:48:09.396Z,5.70
2022-12-11T08:50:52.524Z,6.70
2022-12-11T08:53:35.949Z,6.03
2022-12-11T08:56:20.838Z,6.13
2022-12-11T08:59:04.312Z,5.87
2022-12-11T09:01:47.607Z,5.63
2022-12-11T09:04:32.422Z,6.00
2022-12-11T09:07:15.960Z,6.40
2022-12-11T09:09:59.030Z,5.73
2022-12-11T09:12:42.860Z,6.47
2022-12-11T09:15:26.692Z,6.37
2022-12-11T09:18:10.035Z,5.90
2022-12-11T09:21:01.667Z,6.83
2022-12-11T09:23:45.346Z,6.10
2022-12-11T09:26:30.149Z,7.00
2022-12-11T09:29:14.035Z,6.30
2022-12-11T09:31:58.494Z,7.00
2022-12-11T09:34:41.688Z,6.30
2022-12-11T09:37:26.338Z,7.37
2022-12-11T09:40:12.377Z,5.80
2022-12-11T09:43:01.890Z,7.27
2022-12-11T09:45:45.136Z,6.27
2022-12-11T09:48:28.821Z,6.00
2022-12-11T09:51:20.055Z,6.27
2022-12-11T09:54:06.432Z,6.33
2022-12-11T09:56:55.383Z,6.50
2022-12-11T09:59:46.837Z,6.03
2022-12-11T10:02:42.950Z,5.90
2022-12-11T10:05:35.383Z,6.17
2022-12-11T10:08:25.013Z,6.87
2022-12-11T10:11:36.617Z,7.17
2022-12-11T10:14:27.680Z,6.33
2022-12-11T10:17:13.843Z,7.27
2022-12-11T10:19:59.202Z,6.70
2022-12-11T10:22:42.589Z,6.30
2022-12-11T10:25:30.000Z,5.97
2022-12-11T10:28:16.570Z,8.07
2022-12-11T10:31:06.934Z,7.70
2022-12-11T10:33:59.340Z,7.57
2022-12-11T10:36:45.526Z,7.80
2022-12-11T10:39:29.476Z,6.77
2022-12-11T10:42:19.973Z,7.30
2022-12-11T10:45:07.365Z,6.60
2022-12-11T10:47:50.488Z,6.37
2022-12-11T10:50:33.812Z,6.30
2022-12-11T10:53:22.591Z,7.50
2022-12-11T10:56:06.428Z,7.20
2022-12-11T10:58:51.752Z,6.87
2022-12-11T11:01:37.462Z,8.90
2022-12-11T11:04:26.221Z,7.90
2022-12-11T11:07:14.768Z,7.77
2022-12-11T11:10:17.410Z,7.63
2022-12-11T11:13:03.685Z,7.90
2022-12-11T11:15:46.915Z,8.03
2022-12-11T11:18:32.988Z,7.60
2022-12-11T11:21:19.396Z,6.60
2022-12-11T11:24:02.557Z,6.53
2022-12-11T11:27:12.358Z,7.47
2022-12-11T11:29:53.112Z,7.00
2022-12-11T11:32:39.840Z,6.37
2022-12-11T11:35:29.180Z,5.73
2022-12-11T11:38:23.338Z,7.73
2022-12-11T11:41:15.374Z,5.80
2022-12-11T11:44:03.415Z,7.60
2022-12-11T11:46:51.415Z,7.77
2022-12-11T11:49:48.241Z,5.80
2022-12-11T11:52:40.407Z,7.87
2022-12-11T11:55:39.375Z,6.40
2022-12-11T11:58:27.812Z,11.40
2022-12-11T12:01:16.217Z,6.67
2022-12-11T12:04:00.150Z,9.80
2022-12-11T12:07:10.915Z,8.30
2022-12-11T12:10:02.687Z,8.30
2022-12-11T12:12:53.793Z,6.63
2022-12-11T12:15:45.235Z,9.57
2022-12-11T12:18:35.868Z,7.23
2022-12-11T12:21:27.203Z,6.97
2022-12-11T12:24:21.965Z,6.60
2022-12-11T12:27:50.539Z,13.87
2022-12-11T12:30:24.303Z,8.80
2022-12-11T12:33:23.250Z,7.00
2022-12-11T12:36:18.457Z,6.57
2022-12-11T12:39:03.761Z,7.93
2022-12-11T12:41:58.516Z,9.70
2022-12-11T12:44:57.646Z,9.00
2022-12-11T12:47:42.515Z,8.77
2022-12-11T12:50:28.431Z,7.83
2022-12-11T12:53:18.857Z,7.37
2022-12-11T12:56:04.542Z,7.40
2022-12-11T12:58:47.684Z,7.23
2022-12-11T13:01:32.916Z,8.80
2022-12-11T13:04:54.571Z,7.50
2022-12-11T13:07:33.972Z,7.70
2022-12-11T13:10:27.323Z,7.40
2022-12-11T13:13:32.794Z,7.70
2022-12-11T13:16:35.682Z,6.97
2022-12-11T13:19:29.323Z,7.13
2022-12-11T13:22:23.983Z,8.10
2022-12-11T13:25:22.521Z,7.73
2022-12-11T13:28:10.194Z,7.63
2022-12-11T13:31:09.869Z,8.30
2022-12-11T13:33:56.041Z,8.50
2022-12-11T13:36:42.193Z,7.50
2022-12-11T13:39:27.685Z,7.67
2022-12-11T13:42:24.997Z,8.30
2022-12-11T13:45:19.525Z,8.70
2022-12-11T13:48:02.850Z,7.37
2022-12-11T13:50:47.481Z,6.23
2022-12-11T13:53:32.425Z,7.13
2022-12-11T13:56:19.650Z,7.20
2022-12-11T13:59:02.984Z,7.97
2022-12-11T14:01:46.211Z,8.23
2022-12-11T14:04:31.519Z,7.17
2022-12-11T14:07:19.570Z,8.40
2022-12-11T14:10:10.122Z,7.97
2022-12-11T14:12:58.537Z,8.73
2022-12-11T14:15:46.256Z,7.87
2022-12-11T14:18:33.983Z,7.63
2022-12-11T14:21:21.872Z,7.20
2022-12-11T14:24:06.679Z,7.47
2022-12-11T14:26:53.876Z,8.27
2022-12-11T14:29:37.267Z,7.70
2022-12-11T14:32:29.555Z,8.27
2022-12-11T14:35:24.318Z,7.40
2022-12-11T14:38:14.612Z,8.37
2022-12-11T14:41:04.149Z,8.07
2022-12-11T14:43:51.700Z,8.57
2022-12-11T14:46:41.726Z,8.00
2022-12-11T14:49:31.032Z,7.93
2022-12-11T14:52:18.921Z,7.13
2022-12-11T14:55:07.819Z,7.30
2022-12-11T14:57:55.347Z,7.47
2022-12-11T15:00:39.938Z,7.73
2022-12-11T15:03:26.060Z,7.47
2022-12-11T15:06:25.991Z,8.30
2022-12-11T15:09:20.477Z,8.20
2022-12-11T15:12:11.548Z,8.80
2022-12-11T15:14:58.462Z,7.83
2022-12-11T15:17:45.221Z,8.23
2022-12-11T15:20:31.958Z,8.63
2022-12-11T15:23:18.785Z,8.07
2022-12-11T15:26:03.972Z,7.50
2022-12-11T15:28:47.189Z,7.93
2022-12-11T15:31:31.693Z,7.37
2022-12-11T15:34:24.831Z,7.90
2022-12-11T15:37:19.352Z,7.57
2022-12-11T15:40:04.918Z,8.27
2022-12-11T15:42:48.194Z,7.37
2022-12-11T15:45:31.373Z,8.57
2022-12-11T15:48:14.520Z,7.33
2022-12-11T15:51:01.634Z,7.50
2022-12-11T15:53:45.068Z,8.80
2022-12-11T15:56:28.283Z,8.13
2022-12-11T15:59:12.229Z,8.77
2022-12-11T16:01:55.456Z,8.40
2022-12-11T16:04:38.575Z,8.33
2022-12-11T16:07:25.262Z,7.57
2022-12-11T16:10:14.270Z,8.57
2022-12-11T16:12:59.782Z,8.63
2022-12-11T16:15:45.256Z,9.17
2022-12-11T16:18:28.571Z,9.53
2022-12-11T16:21:13.607Z,8.50
2022-12-11T16:24:01.656Z,7.70
2022-12-11T16:26:44.755Z,8.10
2022-12-11T16:29:27.986Z,8.40
2022-12-11T16:32:11.676Z,7.87
2022-12-11T16:34:55.052Z,7.43
2022-12-11T16:37:38.408Z,7.57
2022-12-11T16:40:23.514Z,7.63
2022-12-11T16:43:06.947Z,8.67
2022-12-11T16:45:56.063Z,8.03
2022-12-11T16:48:39.452Z,6.90
2022-12-11T16:51:22.873Z,7.90
2022-12-11T16:54:06.979Z,7.30
2022-12-11T16:56:51.802Z,8.13
2022-12-11T16:59:37.398Z,7.60
2022-12-11T17:02:21.492Z,7.47
2022-12-11T17:05:05.284Z,7.73
2022-12-11T17:07:48.477Z,7.80
2022-12-11T17:10:31.842Z,7.77
2022-12-11T17:13:16.490Z,7.93
2022-12-11T17:15:59.704Z,7.87
2022-12-11T17:18:43.798Z,9.00
2022-12-11T17:21:26.935Z,7.57
2022-12-11T17:24:10.760Z,7.90
2022-12-11T17:26:54.200Z,8.20
2022-12-11T17:29:38.774Z,8.13
2022-12-11T17:32:22.050Z,7.93
2022-12-11T17:35:05.676Z,8.20
2022-12-11T17:37:48.736Z,7.40
2022-12-11T17:40:32.439Z,8.20
2022-12-11T17:43:15.584Z,8.40
2022-12-11T17:46:00.262Z,8.47
2022-12-11T17:48:44.700Z,7.30
2022-12-11T17:51:28.836Z,8.67
2022-12-11T17:54:14.843Z,8.17
2022-12-11T17:56:58.114Z,8.63
2022-12-11T17:59:41.376Z,8.57
2022-12-11T18:02:26.350Z,8.50
2022-12-11T18:05:09.942Z,8.90
2022-12-11T18:07:57.731Z,9.33
2022-12-11T18:10:41.474Z,8.93
2022-12-11T18:13:25.502Z,9.00
2022-12-11T18:16:11.733Z,8.30
2022-12-11T18:18:57.754Z,10.03
2022-12-11T18:21:43.838Z,8.80
2022-12-11T18:24:31.760Z,9.10
2022-12-11T18:27:15.305Z,9.03
2022-12-11T18:29:58.467Z,9.87
2022-12-11T18:32:41.502Z,10.37
2022-12-11T18:35:26.709Z,10.60
2022-12-11T18:38:10.404Z,9.43
2022-12-11T18:40:53.538Z,10.57
2022-12-11T18:43:37.021Z,10.13
2022-12-11T18:46:22.507Z,9.83
2022-12-11T18:49:05.966Z,9.07
2022-12-11T18:51:51.155Z,9.47
2022-12-11T18:54:34.746Z,8.87
2022-12-11T18:57:17.897Z,10.50
2022-12-11T19:00:07.529Z,10.27
2022-12-11T19:02:52.701Z,9.97
2022-12-11T19:05:42.411Z,9.53
2022-12-11T19:08:27.700Z,11.10
2022-12-11T19:11:14.772Z,10.83
2022-12-11T19:13:58.818Z,11.23
2022-12-11T19:16:45.464Z,10.20
2022-12-11T19:19:28.914Z,10.33
2022-12-11T19:22:12.027Z,12.10
2022-12-11T19:24:56.850Z,12.73
2022-12-11T19:27:39.973Z,11.23
2022-12-11T19:30:23.367Z,10.90
2022-12-11T19:33:06.718Z,11.60
2022-12-11T19:35:49.983Z,10.87
2022-12-11T19:38:33.175Z,10.57
2022-12-11T19:41:20.612Z,9.10
2022-12-11T19:44:03.825Z,9.90
2022-12-11T19:46:47.204Z,10.27
2022-12-11T19:49:33.695Z,10.07
2022-12-11T19:52:17.250Z,11.43
2022-12-11T19:55:03.182Z,11.70
2022-12-11T19:57:48.073Z,11.80
2022-12-11T20:00:31.365Z,11.27
2022-12-11T20:03:14.970Z,10.90
2022-12-11T20:06:02.510Z,11.50
2022-12-11T20:08:46.185Z,12.00
2022-12-11T20:11:29.807Z,10.43
2022-12-11T20:14:21.330Z,10.50
2022-12-11T20:17:14.215Z,9.97
2022-12-11T20:19:57.866Z,11.20
2022-12-11T20:22:41.258Z,10.10
2022-12-11T20:25:26.057Z,11.07
2022-12-11T20:28:10.134Z,10.23
2022-12-11T20:30:55.554Z,10.33
2022-12-11T20:33:39.062Z,10.60
2022-12-11T20:36:23.758Z,11.10
2022-12-11T20:39:07.399Z,11.70
2022-12-11T20:41:50.706Z,10.23
2022-12-11T20:44:33.930Z,11.83
2022-12-11T20:47:19.934Z,10.43
2022-12-11T20:50:03.891Z,10.70
2022-12-11T20:52:47.334Z,10.50
2022-12-11T20:55:30.510Z,10.23
2022-12-11T20:58:13.651Z,11.20
2022-12-11T21:00:57.624Z,11.63
2022-12-11T21:03:42.520Z,10.23
2022-12-11T21:06:28.506Z,10.87
2022-12-11T21:09:14.880Z,12.07
2022-12-11T21:11:58.716Z,11.17
2022-12-11T21:14:42.379Z,10.70
2022-12-11T21:17:25.720Z,10.90
2022-12-11T21:20:12.203Z,10.33
2022-12-11T21:22:57.660Z,11.77
2022-12-11T21:25:41.438Z,11.13
2022-12-11T21:28:24.928Z,10.60
2022-12-11T21:31:12.997Z,10.87
2022-12-11T21:33:58.472Z,10.50
2022-12-11T21:36:45.475Z,11.07
2022-12-11T21:39:31.630Z,11.90
2022-12-11T21:42:18.229Z,10.87
2022-12-11T21:48:04.910Z,11.83
2022-12-11T21:50:48.076Z,11.40
2022-12-11T21:53:32.610Z,10.40
2022-12-11T21:56:18.743Z,12.20
2022-12-11T21:59:02.559Z,10.03
2022-12-11T22:01:47.213Z,10.40
2022-12-11T22:04:30.259Z,14.97
2022-12-11T22:07:13.258Z,18.83
2022-12-11T22:09:58.132Z,16.80
2022-12-11T22:12:41.274Z,20.97
2022-12-11T22:15:24.624Z,25.67
2022-12-11T22:18:08.039Z,23.27
2022-12-11T22:20:51.216Z,24.93
2022-12-11T22:23:35.773Z,19.90
2022-12-11T22:26:22.402Z,18.80
2022-12-11T22:29:05.529Z,19.00
2022-12-11T22:31:48.663Z,20.93
2022-12-11T22:34:31.834Z,19.13
2022-12-11T22:37:14.899Z,15.53
2022-12-11T22:39:58.019Z,15.97
2022-12-11T22:42:44.157Z,14.97
2022-12-11T22:45:27.343Z,16.53
2022-12-11T22:48:11.050Z,18.57
2022-12-11T22:50:54.724Z,18.77
2022-12-11T22:53:37.814Z,20.17
2022-12-11T22:56:20.858Z,25.83
2022-12-11T22:59:05.395Z,27.43
2022-12-11T23:01:48.739Z,28.80
2022-12-11T23:04:31.918Z,28.23
2022-12-11T23:07:15.005Z,27.00
2022-12-11T23:09:58.083Z,26.80
2022-12-11T23:12:41.197Z,22.83
2022-12-11T23:15:25.802Z,21.63
2022-12-11T23:18:08.942Z,19.33
2022-12-11T23:20:51.991Z,18.30
2022-12-11T23:23:35.129Z,17.67
2022-12-11T23:26:19.835Z,16.80
2022-12-11T23:29:03.458Z,16.03
2022-12-11T23:31:48.008Z,14.87
2022-12-11T23:34:31.171Z,15.10
2022-12-11T23:37:14.532Z,14.97
2022-12-11T23:39:57.750Z,16.50
2022-12-11T23:42:40.882Z,16.00
2022-12-11T23:45:24.108Z,16.33
2022-12-11T23:48:08.562Z,15.10
2022-12-11T23:50:51.598Z,17.97
2022-12-11T23:53:34.836Z,17.57
2022-12-11T23:56:20.391Z,17.40
2022-12-11T23:59:03.499Z,17.03
